createdAt,value
2023-03-03T00:01:02.489Z,101627.16
2023-03-03T00:03:30.168Z,101622.91
2023-03-03T00:05:57.961Z,101618.53
2023-03-03T00:08:26.145Z,101609.88
2023-03-03T00:10:55.499Z,101616.00
2023-03-03T00:13:24.829Z,101617.69
2023-03-03T00:15:55.571Z,101610.69
2023-03-03T00:18:34.490Z,101628.13
2023-03-03T00:21:03.919Z,101633.16
2023-03-03T00:23:36.367Z,101635.72
2023-03-03T00:26:17.566Z,101634.59
2023-03-03T00:28:47.466Z,101633.53
2023-03-03T00:31:20.560Z,101637.75
2023-03-03T00:33:54.878Z,101643.78
2023-03-03T00:36:31.642Z,101641.19
2023-03-03T00:39:18.595Z,101642.16
2023-03-03T00:41:46.273Z,101644.78
2023-03-03T00:44:44.916Z,101643.94
2023-03-03T00:47:31.432Z,101659.59
2023-03-03T00:50:27.610Z,101656.91
2023-03-03T00:53:02.450Z,101663.81
2023-03-03T00:55:31.487Z,101658.53
2023-03-03T00:57:59.318Z,101655.03
2023-03-03T01:00:34.022Z,101667.28
2023-03-03T01:03:06.176Z,101659.44
2023-03-03T01:05:34.596Z,101649.00
2023-03-03T01:08:03.099Z,101656.91
2023-03-03T01:10:33.450Z,101659.50
2023-03-03T01:13:01.227Z,101664.66
2023-03-03T01:15:29.094Z,101649.00
2023-03-03T01:17:57.064Z,101646.41
2023-03-03T01:20:26.751Z,101646.41
2023-03-03T01:22:54.469Z,101642.97
2023-03-03T01:25:22.261Z,101638.63
2023-03-03T01:27:49.901Z,101628.22
2023-03-03T01:30:18.908Z,101632.63
2023-03-03T01:32:46.574Z,101631.75
2023-03-03T01:35:14.352Z,101628.22
2023-03-03T01:37:43.440Z,101633.44
2023-03-03T01:40:16.674Z,101635.34
2023-03-03T01:42:44.431Z,101631.84
2023-03-03T01:45:19.365Z,101640.66
2023-03-03T01:47:52.446Z,101637.22
2023-03-03T01:50:29.618Z,101630.31
2023-03-03T01:53:00.659Z,101630.41
2023-03-03T01:55:34.252Z,101620.06
2023-03-03T01:58:06.025Z,101627.88
2023-03-03T02:00:38.004Z,101635.72
2023-03-03T02:03:05.985Z,101641.91
2023-03-03T02:05:34.634Z,101626.25
2023-03-03T02:08:04.270Z,101621.94
2023-03-03T02:10:36.806Z,101619.41
2023-03-03T02:13:04.474Z,101626.44
2023-03-03T02:15:35.908Z,101613.47
2023-03-03T02:18:07.222Z,101618.69
2023-03-03T02:20:45.904Z,101606.66
2023-03-03T02:23:22.641Z,101614.38
2023-03-03T02:26:05.888Z,101605.72
2023-03-03T02:28:35.912Z,101611.97
2023-03-03T02:31:10.957Z,101600.69
2023-03-03T02:33:39.385Z,101595.47
2023-03-03T02:36:11.969Z,101591.16
2023-03-03T02:38:45.302Z,101596.47
2023-03-03T02:41:19.638Z,101591.34
2023-03-03T02:43:57.683Z,101598.38
2023-03-03T02:46:25.920Z,101594.94
2023-03-03T02:48:54.182Z,101596.75
2023-03-03T02:51:21.880Z,101605.47
2023-03-03T02:53:49.515Z,101607.25
2023-03-03T02:56:18.748Z,101598.56
2023-03-03T02:58:46.375Z,101606.53
2023-03-03T03:01:14.093Z,101600.41
2023-03-03T03:03:43.218Z,101597.91
2023-03-03T03:06:11.297Z,101594.50
2023-03-03T03:08:39.027Z,101595.47
2023-03-03T03:11:07.547Z,101589.38
2023-03-03T03:13:36.630Z,101593.75
2023-03-03T03:16:04.713Z,101593.06
2023-03-03T03:18:32.436Z,101593.84
2023-03-03T03:21:07.302Z,101593.94
2023-03-03T03:23:36.165Z,101595.66
2023-03-03T03:26:05.454Z,101608.78
2023-03-03T03:28:34.128Z,101612.28
2023-03-03T03:31:04.414Z,101621.84
2023-03-03T03:33:32.229Z,101608.78
2023-03-03T03:36:01.508Z,101600.97
2023-03-03T03:38:31.567Z,101604.56
2023-03-03T03:40:59.976Z,101605.34
2023-03-03T03:43:28.093Z,101611.56
2023-03-03T03:45:56.582Z,101614.16
2023-03-03T03:48:26.639Z,101614.16
2023-03-03T03:50:54.685Z,101613.28
2023-03-03T03:53:24.608Z,101611.47
2023-03-03T03:56:02.050Z,101614.16
2023-03-03T03:58:30.740Z,101615.88
2023-03-03T04:01:04.718Z,101616.78
2023-03-03T04:03:34.762Z,101619.38
2023-03-03T04:06:05.893Z,101635.97
2023-03-03T04:08:34.758Z,101624.69
2023-03-03T04:11:02.870Z,101633.44
2023-03-03T04:13:32.043Z,101638.66
2023-03-03T04:16:01.179Z,101643.06
2023-03-03T04:18:29.041Z,101643.16
2023-03-03T04:20:58.671Z,101649.16
2023-03-03T04:23:27.711Z,101637.84
2023-03-03T04:25:55.776Z,101636.09
2023-03-03T04:28:27.836Z,101630.09
2023-03-03T04:31:04.144Z,101623.16
2023-03-03T04:33:33.614Z,101629.38
2023-03-03T04:36:06.593Z,101625.84
2023-03-03T04:38:41.195Z,101626.78
2023-03-03T04:41:09.273Z,101630.38
2023-03-03T04:43:46.361Z,101633.88
2023-03-03T04:46:18.885Z,101640.81
2023-03-03T04:48:46.924Z,101634.69
2023-03-03T04:51:21.730Z,101644.31
2023-03-03T04:53:53.360Z,101639.91
2023-03-03T04:56:25.882Z,101631.25
2023-03-03T04:58:53.576Z,101639.09
2023-03-03T05:01:21.473Z,101630.38
2023-03-03T05:03:49.251Z,101633.88
2023-03-03T05:06:19.761Z,101640.91
2023-03-03T05:08:47.459Z,101643.41
2023-03-03T05:11:15.036Z,101639.09
2023-03-03T05:13:42.667Z,101639.91
2023-03-03T05:16:10.626Z,101629.38
2023-03-03T05:18:38.919Z,101637.22
2023-03-03T05:21:06.965Z,101627.56
2023-03-03T05:23:35.936Z,101624.97
2023-03-03T05:26:03.686Z,101621.47
2023-03-03T05:28:31.702Z,101622.34
2023-03-03T05:30:59.447Z,101633.59
2023-03-03T05:33:27.103Z,101637.13
2023-03-03T05:35:55.547Z,101621.56
2023-03-03T05:38:23.648Z,101617.22
2023-03-03T05:40:52.635Z,101599.84
2023-03-03T05:43:20.481Z,101601.66
2023-03-03T05:45:48.146Z,101601.75
2023-03-03T05:48:15.993Z,101611.34
2023-03-03T05:50:43.697Z,101607.84
2023-03-03T05:53:11.325Z,101606.13
2023-03-03T05:55:38.935Z,101619.28
2023-03-03T05:58:07.880Z,101635.84
2023-03-03T06:00:35.581Z,101646.34
2023-03-03T06:03:03.488Z,101644.56
2023-03-03T06:05:31.259Z,101634.22
2023-03-03T06:08:00.804Z,101634.31
2023-03-03T06:10:28.697Z,101642.25
2023-03-03T06:12:59.654Z,101640.53
2023-03-03T06:15:28.834Z,101651.06
2023-03-03T06:17:56.562Z,101657.16
2023-03-03T06:20:24.245Z,101647.63
2023-03-03T06:22:52.144Z,101646.00
2023-03-03T06:25:19.886Z,101652.13
2023-03-03T06:27:47.607Z,101655.63
2023-03-03T06:30:15.991Z,101650.50
2023-03-03T06:32:45.677Z,101654.00
2023-03-03T06:35:13.480Z,101656.59
2023-03-03T06:37:41.119Z,101664.53
2023-03-03T06:40:10.191Z,101660.22
2023-03-03T06:42:37.964Z,101655.97
2023-03-03T06:45:06.440Z,101647.31
2023-03-03T06:47:34.066Z,101647.41
2023-03-03T06:50:03.054Z,101654.53
2023-03-03T06:52:30.718Z,101665.88
2023-03-03T06:55:00.205Z,101671.28
2023-03-03T06:57:29.881Z,101674.75
2023-03-03T07:00:00.157Z,101682.69
2023-03-03T07:02:28.091Z,101675.75
2023-03-03T07:04:57.575Z,101676.66
2023-03-03T07:07:27.608Z,101689.81
2023-03-03T07:09:57.214Z,101686.38
2023-03-03T07:12:27.973Z,101696.81
2023-03-03T07:15:02.999Z,101692.44
2023-03-03T07:17:32.134Z,101698.63
2023-03-03T07:20:00.001Z,101691.78
2023-03-03T07:22:31.091Z,101698.06
2023-03-03T07:25:01.788Z,101695.63
2023-03-03T07:27:31.772Z,101705.34
2023-03-03T07:30:18.697Z,101710.75
2023-03-03T07:32:47.516Z,101709.19
2023-03-03T07:35:31.126Z,101710.19
2023-03-03T07:38:00.766Z,101710.25
2023-03-03T07:40:36.941Z,101706.94
2023-03-03T07:43:31.283Z,101722.63
2023-03-03T07:46:04.622Z,101722.63
2023-03-03T07:48:35.935Z,101727.84
2023-03-03T07:51:07.138Z,101730.63
2023-03-03T07:53:38.141Z,101729.09
2023-03-03T07:56:17.946Z,101723.97
2023-03-03T07:58:45.700Z,101729.34
2023-03-03T08:01:41.176Z,101732.13
2023-03-03T08:04:21.004Z,101718.34
2023-03-03T08:06:56.360Z,101720.19
2023-03-03T08:09:51.016Z,101724.81
2023-03-03T08:12:42.307Z,101723.25
2023-03-03T08:15:19.331Z,101736.50
2023-03-03T08:17:48.998Z,101737.47
2023-03-03T08:20:43.383Z,101733.31
2023-03-03T08:23:11.396Z,101739.69
2023-03-03T08:25:42.361Z,101741.56
2023-03-03T08:28:10.650Z,101743.56
2023-03-03T08:30:38.430Z,101739.38
2023-03-03T08:33:07.285Z,101735.88
2023-03-03T08:35:35.007Z,101738.56
2023-03-03T08:38:02.764Z,101737.81
2023-03-03T08:40:30.666Z,101741.50
2023-03-03T08:42:59.749Z,101738.19
2023-03-03T08:45:29.229Z,101734.09
2023-03-03T08:47:57.407Z,101728.19
2023-03-03T08:50:25.149Z,101729.25
2023-03-03T08:52:53.334Z,101726.00
2023-03-03T08:55:21.144Z,101722.00
2023-03-03T08:57:49.140Z,101721.25
2023-03-03T09:00:20.312Z,101721.41
2023-03-03T09:02:49.292Z,101731.22
2023-03-03T09:05:17.555Z,101725.41
2023-03-03T09:07:47.938Z,101728.25
2023-03-03T09:10:18.203Z,101726.56
2023-03-03T09:12:48.388Z,101730.16
2023-03-03T09:15:22.203Z,101732.00
2023-03-03T09:17:50.432Z,101739.13
2023-03-03T09:20:36.540Z,101734.13
2023-03-03T09:23:30.041Z,101730.25
2023-03-03T09:25:58.501Z,101729.75
2023-03-03T09:28:28.599Z,101727.47
2023-03-03T09:31:00.011Z,101728.66
2023-03-03T09:33:33.443Z,101731.53
2023-03-03T09:36:20.570Z,101735.94
2023-03-03T09:38:49.680Z,101742.38
2023-03-03T09:41:47.646Z,101749.41
2023-03-03T09:44:49.707Z,101746.97
2023-03-03T09:47:33.150Z,101747.69
2023-03-03T09:50:12.980Z,101746.97
2023-03-03T09:52:53.761Z,101744.56
2023-03-03T09:55:37.285Z,101743.81
2023-03-03T09:58:25.188Z,101744.72
2023-03-03T10:01:06.547Z,101749.22
2023-03-03T10:03:57.629Z,101754.66
2023-03-03T10:06:30.294Z,101748.78
2023-03-03T10:09:11.651Z,101761.25
2023-03-03T10:11:48.691Z,101749.44
2023-03-03T10:14:40.858Z,101753.34
2023-03-03T10:17:29.858Z,101759.78
2023-03-03T10:20:15.652Z,101762.44
2023-03-03T10:22:54.760Z,101760.66
2023-03-03T10:25:39.127Z,101747.72
2023-03-03T10:28:30.477Z,101747.91
2023-03-03T10:31:13.638Z,101746.56
2023-03-03T10:34:02.344Z,101744.03
2023-03-03T10:36:48.103Z,101742.44
2023-03-03T10:39:59.345Z,101749.03
2023-03-03T10:42:53.964Z,101740.53
2023-03-03T10:45:54.357Z,101746.06
2023-03-03T10:48:45.267Z,101745.16
2023-03-03T10:51:27.941Z,101737.59
2023-03-03T10:54:19.732Z,101741.31
2023-03-03T10:56:55.288Z,101739.66
2023-03-03T10:59:41.194Z,101728.56
2023-03-03T11:02:19.108Z,101735.88
2023-03-03T11:05:15.225Z,101733.47
2023-03-03T11:07:50.558Z,101735.53
2023-03-03T11:10:35.400Z,101727.91
2023-03-03T11:13:13.651Z,101723.69
2023-03-03T11:15:50.999Z,101723.09
2023-03-03T11:18:32.431Z,101727.78
2023-03-03T11:21:10.395Z,101724.34
2023-03-03T11:23:51.104Z,101723.63
2023-03-03T11:26:30.949Z,101722.00
2023-03-03T11:29:12.592Z,101719.53
2023-03-03T11:31:48.137Z,101710.81
2023-03-03T11:34:36.944Z,101715.38
2023-03-03T11:37:09.643Z,101712.03
2023-03-03T11:39:38.870Z,101717.75
2023-03-03T11:42:17.205Z,101711.22
2023-03-03T11:44:48.197Z,101715.72
2023-03-03T11:47:23.055Z,101710.69
2023-03-03T11:49:58.259Z,101713.59
2023-03-03T11:52:32.772Z,101706.66
2023-03-03T11:55:05.811Z,101700.56
2023-03-03T11:57:40.654Z,101704.09
2023-03-03T12:00:24.593Z,101705.97
2023-03-03T12:03:05.411Z,101702.75
2023-03-03T12:05:44.060Z,101703.75
2023-03-03T12:08:24.758Z,101689.81
2023-03-03T12:11:02.801Z,101688.25
2023-03-03T12:13:48.560Z,101691.88
2023-03-03T12:16:25.240Z,101688.66
2023-03-03T12:19:05.286Z,101685.44
2023-03-03T12:21:47.716Z,101677.72
2023-03-03T12:24:28.743Z,101681.44
2023-03-03T12:27:08.687Z,101678.13
2023-03-03T12:29:46.844Z,101680.16
2023-03-03T12:32:24.084Z,101672.38
2023-03-03T12:34:57.792Z,101674.25
2023-03-03T12:37:43.412Z,101681.28
2023-03-03T12:40:17.722Z,101667.25
2023-03-03T12:43:01.692Z,101658.53
2023-03-03T12:45:39.465Z,101661.41
2023-03-03T12:48:11.269Z,101664.31
2023-03-03T12:50:55.966Z,101660.97
2023-03-03T12:53:47.040Z,101659.47
2023-03-03T12:56:22.980Z,101660.59
2023-03-03T12:59:01.154Z,101656.44
2023-03-03T13:01:44.970Z,101660.03
2023-03-03T13:04:29.992Z,101655.94
2023-03-03T13:07:04.242Z,101647.22
2023-03-03T13:09:43.364Z,101645.34
2023-03-03T13:12:26.358Z,101636.50
2023-03-03T13:15:01.382Z,101638.28
2023-03-03T13:17:36.400Z,101633.88
2023-03-03T13:20:13.419Z,101632.28
2023-03-03T13:22:47.394Z,101628.97
2023-03-03T13:25:40.813Z,101631.19
2023-03-03T13:28:14.921Z,101638.59
2023-03-03T13:30:50.093Z,101634.28
2023-03-03T13:33:26.747Z,101631.59
2023-03-03T13:35:57.897Z,101624.69
2023-03-03T13:38:31.079Z,101622.31
2023-03-03T13:41:06.325Z,101623.88
2023-03-03T13:43:41.072Z,101613.81
2023-03-03T13:46:16.298Z,101611.19
2023-03-03T13:48:58.486Z,101599.91
2023-03-03T13:51:38.335Z,101604.41
2023-03-03T13:54:19.003Z,101606.31
2023-03-03T13:57:08.783Z,101601.97
2023-03-03T13:59:46.952Z,101594.16
2023-03-03T14:02:38.695Z,101592.41
2023-03-03T14:05:17.358Z,101590.25
2023-03-03T14:07:50.176Z,101582.00
2023-03-03T14:10:25.507Z,101581.72
2023-03-03T14:13:03.430Z,101574.66
2023-03-03T14:15:34.009Z,101574.72
2023-03-03T14:18:17.027Z,101572.19
2023-03-03T14:20:50.597Z,101569.66
2023-03-03T14:23:23.369Z,101567.09
2023-03-03T14:25:58.848Z,101561.97
2023-03-03T14:28:29.200Z,101566.16
2023-03-03T14:31:01.142Z,101558.75
2023-03-03T14:33:32.461Z,101558.38
2023-03-03T14:36:16.020Z,101567.06
2023-03-03T14:38:51.720Z,101568.75
2023-03-03T14:41:37.691Z,101568.75
2023-03-03T14:44:26.944Z,101557.06
2023-03-03T14:47:21.706Z,101556.28
2023-03-03T14:49:50.810Z,101548.50
2023-03-03T14:52:27.385Z,101554.84
2023-03-03T14:54:56.805Z,101556.69
2023-03-03T14:57:46.303Z,101554.03
2023-03-03T15:00:35.915Z,101559.09
2023-03-03T15:03:19.704Z,101556.25
2023-03-03T15:05:52.411Z,101549.00
2023-03-03T15:08:33.172Z,101552.28
2023-03-03T15:11:15.090Z,101552.41
2023-03-03T15:13:42.941Z,101551.47
2023-03-03T15:16:13.139Z,101548.63
2023-03-03T15:19:07.998Z,101549.44
2023-03-03T15:21:38.740Z,101551.00
2023-03-03T15:24:16.349Z,101540.66
2023-03-03T15:26:50.158Z,101540.72
2023-03-03T15:29:25.994Z,101539.78
2023-03-03T15:32:03.130Z,101533.63
2023-03-03T15:34:41.000Z,101537.09
2023-03-03T15:37:22.585Z,101527.41
2023-03-03T15:39:59.654Z,101532.69
2023-03-03T15:42:35.680Z,101531.69
2023-03-03T15:45:13.430Z,101533.06
2023-03-03T15:48:03.982Z,101527.41
2023-03-03T15:50:41.907Z,101527.00
2023-03-03T15:53:27.765Z,101529.50
2023-03-03T15:56:11.017Z,101524.06
2023-03-03T15:59:12.789Z,101525.78
2023-03-03T16:01:45.149Z,101525.53
2023-03-03T16:04:15.883Z,101519.03
2023-03-03T16:06:50.711Z,101525.63
2023-03-03T16:09:32.581Z,101523.56
2023-03-03T16:12:08.866Z,101527.72
2023-03-03T16:15:01.178Z,101531.84
2023-03-03T16:17:36.390Z,101523.63
2023-03-03T16:20:14.204Z,101523.44
2023-03-03T16:23:01.268Z,101522.19
2023-03-03T16:25:43.591Z,101526.28
2023-03-03T16:28:18.125Z,101525.94
2023-03-03T16:30:51.139Z,101529.22
2023-03-03T16:33:24.792Z,101531.53
2023-03-03T16:36:01.481Z,101529.47
2023-03-03T16:38:33.562Z,101530.88
2023-03-03T16:41:02.647Z,101539.28
2023-03-03T16:43:40.849Z,101538.06
2023-03-03T16:46:21.200Z,101532.41
2023-03-03T16:48:55.553Z,101532.06
2023-03-03T16:51:32.852Z,101529.81
2023-03-03T16:54:06.550Z,101531.13
2023-03-03T16:56:41.244Z,101538.66
2023-03-03T16:59:32.177Z,101545.28
2023-03-03T17:02:08.983Z,101536.03
2023-03-03T17:04:44.416Z,101535.66
2023-03-03T17:07:23.543Z,101536.00
2023-03-03T17:10:07.434Z,101539.13
2023-03-03T17:12:55.173Z,101537.72
2023-03-03T17:15:39.746Z,101540.84
2023-03-03T17:18:15.023Z,101542.91
2023-03-03T17:20:49.858Z,101539.91
2023-03-03T17:23:36.436Z,101541.19
2023-03-03T17:26:22.299Z,101545.22
2023-03-03T17:29:07.551Z,101547.38
2023-03-03T17:31:45.761Z,101548.72
2023-03-03T17:34:42.087Z,101545.59
2023-03-03T17:37:24.321Z,101550.34
2023-03-03T17:40:04.737Z,101558.72
2023-03-03T17:42:42.737Z,101550.47
2023-03-03T17:45:12.775Z,101560.63
2023-03-03T17:47:54.826Z,101556.84
2023-03-03T17:50:45.844Z,101560.88
2023-03-03T17:53:30.188Z,101564.03
2023-03-03T17:56:07.521Z,101562.09
2023-03-03T17:58:46.215Z,101562.78
2023-03-03T18:01:25.033Z,101566.03
2023-03-03T18:04:14.587Z,101564.19
2023-03-03T18:07:04.489Z,101564.91
2023-03-03T18:10:01.886Z,101566.56
2023-03-03T18:12:39.710Z,101572.59
2023-03-03T18:15:20.145Z,101569.91
2023-03-03T18:18:06.761Z,101569.09
2023-03-03T18:21:03.936Z,101562.91
2023-03-03T18:23:42.617Z,101568.84
2023-03-03T18:26:39.774Z,101565.34
2023-03-03T18:29:23.669Z,101568.47
2023-03-03T18:32:05.930Z,101570.91
2023-03-03T18:34:39.304Z,101568.06
2023-03-03T18:37:40.145Z,101567.84
2023-03-03T18:40:30.135Z,101564.09
2023-03-03T18:42:58.250Z,101562.09
2023-03-03T18:45:49.663Z,101566.13
2023-03-03T18:48:17.753Z,101566.69
2023-03-03T18:50:47.743Z,101569.97
2023-03-03T18:53:28.915Z,101568.00
2023-03-03T18:55:58.423Z,101564.25
2023-03-03T18:58:34.055Z,101557.06
2023-03-03T19:01:28.105Z,101562.03
2023-03-03T19:04:02.060Z,101557.38
2023-03-03T19:06:33.538Z,101558.09
2023-03-03T19:09:03.634Z,101559.66
2023-03-03T19:11:37.575Z,101562.09
2023-03-03T19:14:33.482Z,101547.88
2023-03-03T19:17:39.789Z,101552.94
2023-03-03T19:20:14.295Z,101551.06
2023-03-03T19:22:47.793Z,101555.22
2023-03-03T19:25:28.149Z,101549.03
2023-03-03T19:28:19.358Z,101548.03
2023-03-03T19:30:56.641Z,101558.41
2023-03-03T19:33:40.783Z,101553.91
2023-03-03T19:37:01.688Z,101553.63
2023-03-03T19:39:46.365Z,101559.59
2023-03-03T19:42:25.608Z,101556.91
2023-03-03T19:45:08.536Z,101561.94
2023-03-03T19:47:45.598Z,101564.38
2023-03-03T19:50:24.287Z,101562.50
2023-03-03T19:53:02.025Z,101560.69
2023-03-03T19:55:41.253Z,101553.78
2023-03-03T19:58:31.853Z,101563.31
2023-03-03T20:01:09.825Z,101550.34
2023-03-03T20:04:16.751Z,101555.75
2023-03-03T20:06:58.173Z,101546.47
2023-03-03T20:09:38.088Z,101545.72
2023-03-03T20:12:25.447Z,101552.94
2023-03-03T20:15:01.058Z,101554.97
2023-03-03T20:17:44.953Z,101538.59
2023-03-03T20:20:52.307Z,101541.34
2023-03-03T20:23:27.211Z,101542.34
2023-03-03T20:26:01.480Z,101549.53
2023-03-03T20:28:56.786Z,101537.63
2023-03-03T20:31:33.693Z,101549.13
2023-03-03T20:34:11.704Z,101543.19
2023-03-03T20:36:53.372Z,101549.47
2023-03-03T20:39:39.412Z,101543.41
2023-03-03T20:42:18.027Z,101543.56
2023-03-03T20:45:01.492Z,101541.06
2023-03-03T20:47:41.159Z,101545.56
2023-03-03T20:50:16.229Z,101545.59
2023-03-03T20:52:54.353Z,101538.78
2023-03-03T20:55:32.355Z,101540.56
2023-03-03T20:58:07.753Z,101536.25
2023-03-03T21:00:44.181Z,101526.69
2023-03-03T21:03:22.568Z,101532.00
2023-03-03T21:05:59.647Z,101539.00
2023-03-03T21:08:46.731Z,101532.16
2023-03-03T21:11:15.908Z,101531.34
2023-03-03T21:13:45.929Z,101522.59
2023-03-03T21:16:30.370Z,101521.84
2023-03-03T21:19:01.261Z,101514.09
2023-03-03T21:21:32.067Z,101516.00
2023-03-03T21:24:00.636Z,101508.16
2023-03-03T21:26:50.086Z,101503.91
2023-03-03T21:29:23.942Z,101507.41
2023-03-03T21:31:53.176Z,101502.25
2023-03-03T21:34:28.775Z,101505.78
2023-03-03T21:36:58.642Z,101498.84
2023-03-03T21:39:29.535Z,101495.34
2023-03-03T21:42:01.199Z,101495.34
2023-03-03T21:44:37.433Z,101498.00
2023-03-03T21:47:06.395Z,101491.00
2023-03-03T21:49:35.731Z,101479.72
2023-03-03T21:52:06.693Z,101478.81
2023-03-03T21:54:34.451Z,101466.66
2023-03-03T21:57:02.285Z,101471.88
2023-03-03T21:59:30.282Z,101450.09
2023-03-03T22:01:58.332Z,101453.66
2023-03-03T22:04:26.207Z,101456.19
2023-03-03T22:06:55.395Z,101462.41
2023-03-03T22:09:23.464Z,101454.50
2023-03-03T22:11:51.248Z,101453.66
2023-03-03T22:14:19.216Z,101454.59
2023-03-03T22:16:47.138Z,101445.03
2023-03-03T22:19:15.105Z,101454.72
2023-03-03T22:21:42.939Z,101446.88
2023-03-03T22:24:12.530Z,101442.56
2023-03-03T22:26:40.456Z,101439.19
2023-03-03T22:29:08.513Z,101434.81
2023-03-03T22:31:36.325Z,101438.31
2023-03-03T22:34:04.622Z,101429.59
2023-03-03T22:36:32.660Z,101421.75
2023-03-03T22:39:01.964Z,101412.97
2023-03-03T22:41:31.044Z,101413.91
2023-03-03T22:43:58.814Z,101410.28
2023-03-03T22:46:28.844Z,101416.28
2023-03-03T22:48:56.591Z,101412.69
2023-03-03T22:51:24.387Z,101402.97
2023-03-03T22:53:52.144Z,101402.88
2023-03-03T22:56:19.955Z,101394.97
2023-03-03T22:58:50.473Z,101397.53
2023-03-03T23:01:18.216Z,101386.00
2023-03-03T23:03:47.984Z,101392.06
2023-03-03T23:06:15.766Z,101384.06
2023-03-03T23:08:43.455Z,101389.13
2023-03-03T23:11:11.353Z,101385.56
2023-03-03T23:13:39.279Z,101383.75
2023-03-03T23:16:08.913Z,101380.06
2023-03-03T23:18:36.753Z,101374.78
2023-03-03T23:21:04.918Z,101384.16
2023-03-03T23:23:32.709Z,101365.81
2023-03-03T23:26:00.904Z,101372.59
2023-03-03T23:28:28.674Z,101374.16
2023-03-03T23:30:56.475Z,101373.19
2023-03-03T23:33:25.568Z,101375.78
2023-03-03T23:35:53.346Z,101375.72
2023-03-03T23:38:21.181Z,101373.84
2023-03-03T23:40:48.923Z,101377.19
2023-03-03T23:43:17.163Z,101372.78
2023-03-03T23:45:44.880Z,101370.13
2023-03-03T23:48:12.828Z,101361.19
2023-03-03T23:50:42.087Z,101351.69
2023-03-03T23:53:10.018Z,101348.97
2023-03-03T23:55:37.779Z,101348.91
2023-03-03T23:58:05.754Z,101354.03
